Time;durP1;ratioP1;P1;durP2;ratioP2;P2;SDS_P1;SDS_P2;PMS_P1;PMS_P2;Temp;Humidity;BMP_temperature;BMP_pressure;BME280_temperature;BME280_humidity;BME280_pressure;Samples;Min_cycle;Max_cycle;Signal;HPM_P1;HPM_P2
2022/12/13 00:01:55;;;;;;;28.15;20.27;;;27.00;95.40;;;;;;4984451;28;20039;-50
2022/12/13 00:04:23;;;;;;;24.27;18.35;;;27.00;95.40;;;;;;4984634;28;20026;-52
2022/12/13 00:06:52;;;;;;;19.73;16.90;;;26.90;95.30;;;;;;4984447;28;20070;-51
2022/12/13 00:09:20;;;;;;;20.60;15.55;;;27.00;95.30;;;;;;4984355;28;20069;-52
2022/12/13 00:11:48;;;;;;;18.10;15.13;;;27.00;95.20;;;;;;4984430;28;20019;-53
2022/12/13 00:14:15;;;;;;;18.60;15.43;;;27.00;95.20;;;;;;4984396;28;20077;-58
2022/12/13 00:16:45;;;;;;;20.75;16.10;;;27.00;95.10;;;;;;4984446;28;20106;-52
2022/12/13 00:19:13;;;;;;;20.70;16.35;;;26.90;95.00;;;;;;4984235;28;20033;-52
2022/12/13 00:21:40;;;;;;;20.02;16.60;;;26.90;95.00;;;;;;4984041;28;20337;-49
2022/12/13 00:24:07;;;;;;;18.05;15.65;;;26.90;95.00;;;;;;4984238;28;20269;-50
2022/12/13 00:26:34;;;;;;;18.55;14.50;;;26.90;94.90;;;;;;4984086;28;20086;-54
2022/12/13 00:29:02;;;;;;;17.90;13.85;;;26.90;94.90;;;;;;4983927;28;20358;-50
2022/12/13 00:31:32;;;;;;;14.73;12.27;;;26.90;94.80;;;;;;4989843;28;20042;-52
2022/12/13 00:34:00;;;;;;;12.77;11.27;;;26.90;94.80;;;;;;5029640;28;20020;-51
2022/12/13 00:36:27;;;;;;;13.60;10.75;;;26.80;94.80;;;;;;5030856;28;20080;-51
2022/12/13 00:39:00;;;;;;;11.43;10.13;;;26.70;94.80;;;;;;5019081;28;20030;-53
2022/12/13 00:41:35;;;;;;;10.95;9.85;;;26.50;95.00;;;;;;4966254;28;20035;-53
2022/12/13 00:44:02;;;;;;;12.13;9.75;;;26.40;95.00;;;;;;4990182;28;20106;-53
2022/12/13 00:46:29;;;;;;;11.02;9.85;;;26.30;95.30;;;;;;5011831;28;20051;-55
2022/12/13 00:48:58;;;;;;;10.13;9.10;;;26.20;95.40;;;;;;4975897;28;20295;-55
2022/12/13 00:51:26;;;;;;;12.07;10.07;;;26.20;95.50;;;;;;4964330;28;20099;-54
2022/12/13 00:53:52;;;;;;;11.88;9.40;;;26.20;95.60;;;;;;4969979;28;20026;-56
2022/12/13 00:56:24;;;;;;;9.98;8.90;;;26.10;95.60;;;;;;4974244;28;20118;-53
2022/12/13 00:58:53;;;;;;;11.87;8.80;;;26.10;95.50;;;;;;4984240;28;20041;-53
2022/12/13 01:01:23;;;;;;;11.88;9.32;;;26.00;95.50;;;;;;4983615;28;20362;-57
2022/12/13 01:03:50;;;;;;;11.82;9.02;;;25.90;95.60;;;;;;4983670;28;20033;-56
2022/12/13 01:06:18;;;;;;;13.43;9.90;;;25.90;95.80;;;;;;4983433;28;20049;-53
2022/12/13 01:08:46;;;;;;;12.48;9.90;;;25.90;95.70;;;;;;4983909;28;20261;-58
2022/12/13 01:11:13;;;;;;;11.60;9.23;;;25.90;95.70;;;;;;4977488;28;20093;-53
2022/12/13 01:13:40;;;;;;;12.57;9.43;;;25.90;95.70;;;;;;4964451;29;20031;-55
2022/12/13 01:16:09;;;;;;;12.00;8.95;;;25.80;95.70;;;;;;4965844;28;20031;-55
2022/12/13 01:18:36;;;;;;;11.60;8.18;;;25.80;95.50;;;;;;4972264;28;20069;-54
2022/12/13 01:21:06;;;;;;;17.25;10.00;;;25.80;95.60;;;;;;4974467;28;20097;-53
2022/12/13 01:23:34;;;;;;;12.88;9.15;;;25.70;95.50;;;;;;4964359;28;20068;-51
2022/12/13 01:26:05;;;;;;;10.73;9.13;;;25.70;95.60;;;;;;4981896;28;20335;-53
2022/12/13 01:28:32;;;;;;;12.63;9.00;;;25.80;95.70;;;;;;4981891;28;20062;-53
2022/12/13 01:31:11;;;;;;;9.57;8.65;;;25.90;95.60;;;;;;4973380;28;20323;-55
2022/12/13 01:33:42;;;;;;;9.27;8.27;;;26.00;95.30;;;;;;4967600;28;20019;-53
2022/12/13 01:36:14;;;;;;;9.40;8.10;;;26.00;95.00;;;;;;4982791;28;20361;-53
2022/12/13 01:38:42;;;;;;;8.63;7.75;;;26.10;94.90;;;;;;4980718;28;20023;-54
2022/12/13 01:41:19;;;;;;;11.68;8.23;;;26.10;94.50;;;;;;4982842;28;20045;-53
2022/12/13 01:43:46;;;;;;;8.95;7.72;;;26.20;94.30;;;;;;4981934;28;20079;-53
2022/12/13 01:46:15;;;;;;;10.90;7.63;;;26.30;94.00;;;;;;4973490;28;20155;-54
2022/12/13 01:49:09;;;;;;;8.98;7.22;;;26.30;93.90;;;;;;4973771;28;20066;-54
2022/12/13 01:51:38;;;;;;;8.38;6.75;;;26.30;93.70;;;;;;4976888;28;20088;-54
2022/12/13 01:54:11;;;;;;;8.00;7.30;;;26.30;93.50;;;;;;4980298;28;20377;-53
2022/12/13 01:56:43;;;;;;;8.85;6.45;;;26.30;93.40;;;;;;4981984;28;20030;-53
2022/12/13 01:59:12;;;;;;;10.85;7.35;;;26.40;93.30;;;;;;4975741;28;20097;-53
2022/12/13 02:01:40;;;;;;;10.57;6.78;;;26.40;93.20;;;;;;4982331;28;20023;-50
2022/12/13 02:04:07;;;;;;;11.52;6.38;;;26.40;93.10;;;;;;4982614;28;20045;-52
2022/12/13 02:06:42;;;;;;;13.98;6.75;;;26.40;93.00;;;;;;5050825;28;20028;-56
2022/12/13 02:09:09;;;;;;;14.27;6.68;;;26.40;92.80;;;;;;5083991;28;20056;-53
2022/12/13 02:11:39;;;;;;;10.40;6.65;;;26.40;92.70;;;;;;5040998;28;20061;-52
2022/12/13 02:14:08;;;;;;;9.93;6.47;;;26.40;92.50;;;;;;4975409;28;20089;-58
2022/12/13 02:16:53;;;;;;;11.57;6.00;;;26.40;92.30;;;;;;4969311;28;20312;-53
2022/12/13 02:19:41;;;;;;;10.13;6.68;;;26.40;92.20;;;;;;4963166;28;20057;-54
2022/12/13 02:22:32;;;;;;;8.68;6.18;;;26.40;92.10;;;;;;4963111;28;20027;-55
2022/12/13 02:25:08;;;;;;;10.88;5.80;;;26.40;91.90;;;;;;4963035;29;20031;-53
2022/12/13 02:27:40;;;;;;;8.63;5.97;;;26.40;91.90;;;;;;4963432;29;20061;-55
2022/12/13 02:30:31;;;;;;;9.25;5.65;;;26.40;91.90;;;;;;4962741;29;20035;-52
2022/12/13 02:33:14;;;;;;;6.68;5.43;;;26.30;91.80;;;;;;4971555;28;20027;-54
2022/12/13 02:36:17;;;;;;;7.07;5.55;;;26.40;91.80;;;;;;4982576;28;20383;-52
2022/12/13 02:38:57;;;;;;;7.07;5.28;;;26.30;91.60;;;;;;4983480;28;20314;-50
2022/12/13 02:41:27;;;;;;;6.65;5.10;;;26.30;91.80;;;;;;4982713;28;20108;-59
2022/12/13 02:44:01;;;;;;;5.80;5.30;;;26.40;91.60;;;;;;4982740;28;20027;-53
2022/12/13 02:46:31;;;;;;;6.60;5.10;;;26.40;91.50;;;;;;4982088;28;20292;-52
2022/12/13 02:48:59;;;;;;;7.53;5.40;;;26.30;91.50;;;;;;4982640;28;20027;-53
2022/12/13 02:51:28;;;;;;;5.80;5.20;;;26.30;91.50;;;;;;4980185;28;20101;-51
2022/12/13 02:53:54;;;;;;;6.07;4.88;;;26.30;91.30;;;;;;4976688;28;20031;-54
2022/12/13 02:56:21;;;;;;;7.70;4.90;;;26.30;91.40;;;;;;4967184;28;20031;-54
2022/12/13 02:58:51;;;;;;;6.95;4.90;;;26.30;91.30;;;;;;4963252;29;20023;-54
2022/12/13 03:01:30;;;;;;;7.25;5.03;;;26.30;91.30;;;;;;4962575;28;20217;-54
2022/12/13 03:04:09;;;;;;;5.25;4.75;;;26.30;91.30;;;;;;4973985;28;20062;-53
2022/12/13 03:06:49;;;;;;;5.72;4.95;;;26.30;91.10;;;;;;4962555;29;20027;-53
2022/12/13 03:09:31;;;;;;;4.93;4.45;;;26.30;91.30;;;;;;4966700;28;20105;-53
2022/12/13 03:15:06;;;;;;;7.45;4.60;;;26.30;91.20;;;;;;4981792;28;20042;-54
2022/12/13 03:17:42;;;;;;;8.45;4.70;;;26.30;91.20;;;;;;4975931;28;20047;-56
2022/12/13 03:20:09;;;;;;;6.05;4.82;;;26.30;91.20;;;;;;4968368;28;20094;-54
2022/12/13 03:22:35;;;;;;;8.13;5.10;;;26.30;91.20;;;;;;4966066;29;20023;-53
2022/12/13 03:25:02;;;;;;;5.28;4.57;;;26.20;91.20;;;;;;4973550;28;20208;-54
2022/12/13 03:27:29;;;;;;;6.95;4.47;;;26.30;91.20;;;;;;4970865;28;20023;-54
2022/12/13 03:29:55;;;;;;;5.25;3.53;;;26.20;91.10;;;;;;4974550;28;20341;-53
2022/12/13 03:32:22;;;;;;;7.57;4.53;;;26.20;91.10;;;;;;5003179;28;20102;-53
2022/12/13 03:34:48;;;;;;;8.80;4.82;;;26.20;91.10;;;;;;5079408;28;20312;-53
2022/12/13 03:37:15;;;;;;;6.53;4.93;;;26.20;91.10;;;;;;5087200;28;20031;-54
2022/12/13 03:39:42;;;;;;;6.55;4.65;;;26.20;91.00;;;;;;4976480;28;20035;-54
2022/12/13 03:42:08;;;;;;;5.15;4.65;;;26.20;90.90;;;;;;4967773;28;20031;-52
2022/12/13 03:44:35;;;;;;;5.82;4.93;;;26.20;90.90;;;;;;4973980;28;20084;-55
2022/12/13 03:47:01;;;;;;;5.32;4.80;;;26.20;91.00;;;;;;4969574;28;20266;-50
2022/12/13 03:49:28;;;;;;;7.20;4.93;;;26.20;91.00;;;;;;4978347;28;20138;-53
2022/12/13 03:51:54;;;;;;;6.47;4.60;;;26.20;91.00;;;;;;4968405;28;20031;-53
2022/12/13 03:54:21;;;;;;;4.90;4.10;;;26.10;90.90;;;;;;4965197;29;20031;-52
2022/12/13 03:56:47;;;;;;;5.93;4.68;;;26.20;90.90;;;;;;4971045;28;20055;-56
2022/12/13 03:59:14;;;;;;;5.15;4.10;;;26.10;90.80;;;;;;4970554;28;20044;-54
2022/12/13 04:01:40;;;;;;;6.95;4.40;;;26.10;90.70;;;;;;4976067;28;20097;-54
2022/12/13 04:04:07;;;;;;;6.57;4.45;;;26.10;90.80;;;;;;4968364;28;20226;-53
2022/12/13 04:06:34;;;;;;;5.10;4.20;;;26.10;90.70;;;;;;4981653;28;20027;-53
2022/12/13 04:09:00;;;;;;;4.65;4.13;;;26.10;90.70;;;;;;5026475;28;20380;-52
2022/12/13 04:14:12;;;;;;;5.18;4.13;;;26.10;90.70;;;;;;4982226;28;20021;-64
2022/12/13 04:16:38;;;;;;;4.30;3.90;;;26.10;90.70;;;;;;4983687;28;20022;-54
2022/12/13 04:19:05;;;;;;;7.93;4.32;;;26.10;90.60;;;;;;4980382;28;20042;-55
2022/12/13 04:21:31;;;;;;;5.10;4.07;;;26.10;90.60;;;;;;4984203;28;20026;-57
2022/12/13 04:23:58;;;;;;;4.80;3.88;;;26.10;90.60;;;;;;5012875;28;20027;-55
2022/12/13 04:26:24;;;;;;;6.82;3.88;;;26.10;90.70;;;;;;5077107;28;20043;-54
2022/12/13 04:28:51;;;;;;;5.18;4.03;;;26.10;90.60;;;;;;5086280;28;20096;-55
2022/12/13 04:31:17;;;;;;;7.25;3.97;;;26.10;90.60;;;;;;5072054;28;20032;-57
2022/12/13 04:33:44;;;;;;;4.97;4.00;;;26.10;90.50;;;;;;4979697;28;20049;-55
2022/12/13 04:36:18;;;;;;;3.95;3.63;;;26.00;90.40;;;;;;4978227;28;20031;-55
2022/12/13 04:38:48;;;;;;;4.20;3.40;;;26.10;90.40;;;;;;4965376;28;20243;-55
2022/12/13 04:41:18;;;;;;;4.30;3.83;;;26.00;90.40;;;;;;4965489;28;20042;-57
2022/12/13 04:43:54;;;;;;;4.15;3.80;;;26.00;90.30;;;;;;4976243;28;20125;-50
2022/12/13 04:46:22;;;;;;;5.50;3.53;;;26.00;90.30;;;;;;5044249;28;20072;-53
2022/12/13 04:48:48;;;;;;;4.05;3.65;;;26.00;90.30;;;;;;5021648;28;20038;-54
2022/12/13 04:51:16;;;;;;;5.75;3.70;;;26.00;90.30;;;;;;5063050;28;20039;-54
2022/12/13 04:53:42;;;;;;;6.82;3.80;;;26.00;90.30;;;;;;5086217;28;20021;-55
2022/12/13 04:56:09;;;;;;;4.70;3.65;;;26.00;90.30;;;;;;5085731;28;20300;-54
2022/12/13 04:58:35;;;;;;;3.80;3.50;;;26.00;90.30;;;;;;5067808;28;20254;-53
2022/12/13 05:01:05;;;;;;;4.90;3.85;;;26.00;90.30;;;;;;5018967;28;20042;-54
2022/12/13 05:03:32;;;;;;;4.20;3.83;;;26.00;90.30;;;;;;5013291;28;20064;-53
2022/12/13 05:05:58;;;;;;;5.43;4.22;;;26.00;90.20;;;;;;5063605;28;20147;-54
2022/12/13 05:08:25;;;;;;;4.20;3.60;;;26.00;90.30;;;;;;5017003;28;20073;-56
2022/12/13 05:10:53;;;;;;;6.38;4.07;;;26.00;90.20;;;;;;4974013;28;20027;-54
2022/12/13 05:13:19;;;;;;;5.63;3.65;;;26.00;90.20;;;;;;4972328;28;20050;-55
2022/12/13 05:15:46;;;;;;;3.95;3.55;;;26.00;90.20;;;;;;4970042;28;20050;-55
2022/12/13 05:18:12;;;;;;;5.28;3.67;;;26.00;90.20;;;;;;4974297;28;20077;-53
2022/12/13 05:20:39;;;;;;;5.30;3.60;;;26.00;90.20;;;;;;4978702;28;20224;-51
2022/12/13 05:23:06;;;;;;;4.60;3.72;;;26.00;90.20;;;;;;4975383;28;20019;-58
2022/12/13 05:25:34;;;;;;;6.32;3.65;;;26.00;90.10;;;;;;4964020;29;20374;-54
2022/12/13 05:28:00;;;;;;;5.82;3.63;;;26.00;90.20;;;;;;4974055;28;20019;-53
2022/12/13 05:30:27;;;;;;;7.38;4.05;;;25.90;90.10;;;;;;4977396;28;20023;-55
2022/12/13 05:32:53;;;;;;;5.63;3.95;;;25.90;90.20;;;;;;4976300;28;20041;-53
2022/12/13 05:35:20;;;;;;;6.35;5.55;;;25.90;90.20;;;;;;4982952;28;20030;-54
2022/12/13 05:37:46;;;;;;;7.85;6.00;;;25.90;90.20;;;;;;4983172;28;20061;-59
2022/12/13 05:40:13;;;;;;;6.25;5.65;;;25.90;90.30;;;;;;4982581;28;20033;-60
2022/12/13 05:42:39;;;;;;;5.75;5.18;;;25.90;90.30;;;;;;4982789;28;20029;-53
2022/12/13 05:45:07;;;;;;;6.20;5.05;;;25.90;90.30;;;;;;4982848;28;20042;-53
2022/12/13 05:47:34;;;;;;;8.57;5.20;;;25.90;90.40;;;;;;4981437;28;20353;-53
2022/12/13 05:50:02;;;;;;;7.10;4.90;;;25.90;90.40;;;;;;4974384;28;20050;-55
2022/12/13 05:52:28;;;;;;;6.97;4.72;;;25.80;90.40;;;;;;4979334;28;20299;-55
2022/12/13 05:54:55;;;;;;;4.85;4.32;;;25.80;90.40;;;;;;4980620;28;20046;-54
2022/12/13 05:57:23;;;;;;;6.20;4.40;;;25.80;90.40;;;;;;4972427;28;20031;-54
2022/12/13 05:59:49;;;;;;;8.40;4.47;;;25.80;90.40;;;;;;4982602;28;20031;-55
2022/12/13 06:02:19;;;;;;;5.65;4.18;;;25.80;90.50;;;;;;4982860;28;20302;-53
2022/12/13 06:04:45;;;;;;;5.60;4.10;;;25.80;90.50;;;;;;4982702;28;20035;-55
2022/12/13 06:07:13;;;;;;;5.13;4.22;;;25.80;90.60;;;;;;4982646;28;20037;-55
2022/12/13 06:09:39;;;;;;;7.60;3.85;;;25.80;90.60;;;;;;4982498;28;20049;-56
2022/12/13 06:12:06;;;;;;;6.38;4.57;;;25.80;90.60;;;;;;4982619;28;20042;-56
2022/12/13 06:14:32;;;;;;;8.20;4.43;;;25.70;90.50;;;;;;4982399;28;20049;-54
2022/12/13 06:16:59;;;;;;;5.88;3.90;;;25.70;90.50;;;;;;4982518;28;20133;-54
2022/12/13 06:19:26;;;;;;;4.45;4.00;;;25.70;90.80;;;;;;4982432;28;20086;-54
2022/12/13 06:21:54;;;;;;;5.53;4.30;;;25.70;90.80;;;;;;4982347;28;20077;-54
2022/12/13 06:24:22;;;;;;;6.75;4.45;;;25.70;90.60;;;;;;4982427;28;20245;-55
2022/12/13 06:26:49;;;;;;;7.00;4.15;;;25.70;90.60;;;;;;5016804;28;20034;-56
2022/12/13 06:29:18;;;;;;;5.38;4.28;;;25.70;90.60;;;;;;5026339;28;20024;-56
2022/12/13 06:31:45;;;;;;;5.88;4.20;;;25.70;90.60;;;;;;5084062;28;20051;-55
2022/12/13 06:34:11;;;;;;;4.95;3.90;;;25.70;90.70;;;;;;5084008;28;20020;-55
2022/12/13 06:36:38;;;;;;;6.75;4.10;;;25.70;90.70;;;;;;5083770;28;20024;-56
2022/12/13 06:39:06;;;;;;;4.57;4.00;;;25.70;90.80;;;;;;5056300;28;20043;-56
2022/12/13 06:41:33;;;;;;;5.05;4.10;;;25.70;90.80;;;;;;4973643;28;20035;-53
2022/12/13 06:44:00;;;;;;;7.82;4.43;;;25.70;90.90;;;;;;4982274;28;20345;-53
2022/12/13 06:46:26;;;;;;;8.15;4.38;;;25.60;90.90;;;;;;4981917;28;20117;-54
2022/12/13 06:48:53;;;;;;;6.65;4.43;;;25.70;90.90;;;;;;4982770;28;20050;-55
2022/12/13 06:51:19;;;;;;;4.88;4.22;;;25.60;90.90;;;;;;4981840;28;20058;-54
2022/12/13 06:53:46;;;;;;;5.32;4.15;;;25.60;90.90;;;;;;4988677;28;20038;-54
2022/12/13 06:56:13;;;;;;;7.10;4.43;;;25.60;91.00;;;;;;4988485;28;20035;-55
2022/12/13 06:58:41;;;;;;;5.70;4.13;;;25.60;91.00;;;;;;4988823;28;20026;-56
2022/12/13 07:01:13;;;;;;;5.65;4.35;;;25.60;91.00;;;;;;4981809;28;20050;-54
2022/12/13 07:03:40;;;;;;;;;;;25.60;91.10;;;;;;4975139;28;20045;-54
2022/12/13 07:06:13;;;;;;;7.15;4.35;;;25.60;91.20;;;;;;4968908;28;19911;-54
2022/12/13 07:08:41;;;;;;;6.05;4.38;;;25.50;91.20;;;;;;4969471;28;20041;-55
2022/12/13 07:11:15;;;;;;;6.25;4.68;;;25.50;91.50;;;;;;4968816;28;20299;-52
2022/12/13 07:13:42;;;;;;;4.90;4.40;;;25.50;91.40;;;;;;4969366;28;20307;-54
2022/12/13 07:16:10;;;;;;;7.40;4.65;;;25.50;91.40;;;;;;4978037;28;20027;-55
2022/12/13 07:18:37;;;;;;;5.68;4.35;;;25.60;91.50;;;;;;4975107;28;20024;-52
2022/12/13 07:21:09;;;;;;;5.95;4.13;;;25.60;91.60;;;;;;4980145;28;20041;-54
2022/12/13 07:23:37;;;;;;;6.40;4.55;;;25.60;91.50;;;;;;4980045;28;20094;-55
2022/12/13 07:26:04;;;;;;;5.78;4.18;;;25.50;91.50;;;;;;4968723;28;20074;-56
2022/12/13 07:28:35;;;;;;;5.63;4.68;;;25.60;91.60;;;;;;4972192;28;20056;-56
2022/12/13 07:31:04;;;;;;;5.53;4.45;;;25.60;91.60;;;;;;4977225;28;20374;-62
2022/12/13 07:33:31;;;;;;;4.95;4.40;;;25.60;91.50;;;;;;4969092;28;20030;-61
2022/12/13 07:36:16;;;;;;;5.18;4.40;;;25.60;91.50;;;;;;4968629;28;20038;-55
2022/12/13 07:38:43;;;;;;;6.88;4.30;;;25.60;91.40;;;;;;4969287;28;20034;-57
2022/12/13 07:41:10;;;;;;;5.50;4.82;;;25.60;91.40;;;;;;4968593;29;20354;-54
2022/12/13 07:43:37;;;;;;;5.13;4.60;;;25.60;91.40;;;;;;4968906;29;20027;-57
2022/12/13 07:46:05;;;;;;;5.68;4.22;;;25.60;91.30;;;;;;4968319;29;20047;-56
2022/12/13 07:48:32;;;;;;;4.88;4.30;;;25.60;91.30;;;;;;4968805;29;20038;-55
2022/12/13 07:51:09;;;;;;;4.57;4.18;;;25.60;91.40;;;;;;4968350;28;20094;-55
2022/12/13 07:53:36;;;;;;;5.47;4.20;;;25.60;91.40;;;;;;4968834;28;20047;-55
2022/12/13 07:56:04;;;;;;;5.25;4.20;;;25.60;91.40;;;;;;4971233;28;20272;-55
2022/12/13 07:58:34;;;;;;;4.60;4.20;;;25.60;91.30;;;;;;4977149;28;20077;-54
2022/12/13 08:01:04;;;;;;;5.57;4.43;;;25.60;91.40;;;;;;4968387;28;20035;-55
2022/12/13 08:03:31;;;;;;;5.25;4.00;;;25.60;91.40;;;;;;4967358;28;20100;-58
2022/12/13 08:06:02;;;;;;;6.70;4.20;;;25.60;91.40;;;;;;4965108;28;20085;-55
2022/12/13 08:08:30;;;;;;;5.28;4.30;;;25.60;91.40;;;;;;4965610;28;20058;-57
2022/12/13 08:11:01;;;;;;;4.75;4.25;;;25.60;91.40;;;;;;4965459;29;20077;-54
2022/12/13 08:13:27;;;;;;;7.00;4.78;;;25.60;91.40;;;;;;4965276;29;20081;-56
2022/12/13 08:15:59;;;;;;;5.90;4.28;;;25.60;91.30;;;;;;4965173;29;20052;-54
2022/12/13 08:18:27;;;;;;;6.40;4.30;;;25.60;91.40;;;;;;4965318;28;20077;-57
2022/12/13 08:21:00;;;;;;;6.72;4.60;;;25.70;91.40;;;;;;4965001;28;20165;-55
2022/12/13 08:23:28;;;;;;;10.02;4.45;;;25.70;91.50;;;;;;4965356;28;20030;-54
2022/12/13 08:25:55;;;;;;;5.13;4.25;;;25.60;91.50;;;;;;4964860;28;20038;-55
2022/12/13 08:28:22;;;;;;;7.50;4.50;;;25.60;91.50;;;;;;4965236;29;20027;-55
2022/12/13 08:30:50;;;;;;;8.88;4.60;;;25.60;91.50;;;;;;4964813;29;20255;-54
2022/12/13 08:33:17;;;;;;;6.50;4.38;;;25.60;91.50;;;;;;4964924;28;20030;-55
2022/12/13 08:35:45;;;;;;;5.35;4.20;;;25.60;91.60;;;;;;4964740;28;20313;-55
2022/12/13 08:38:11;;;;;;;6.47;4.47;;;25.60;91.60;;;;;;4965034;29;20195;-55
2022/12/13 08:40:38;;;;;;;5.70;3.80;;;25.60;91.70;;;;;;4964617;28;20223;-55
2022/12/13 08:43:05;;;;;;;5.32;4.50;;;25.60;91.80;;;;;;4965032;28;20049;-55
2022/12/13 08:45:33;;;;;;;6.00;4.20;;;25.60;91.80;;;;;;4964406;29;20030;-55
2022/12/13 08:48:01;;;;;;;6.97;4.63;;;25.60;91.80;;;;;;4964671;28;20031;-56
2022/12/13 08:50:29;;;;;;;8.57;4.90;;;25.60;91.90;;;;;;4964327;28;20071;-56
2022/12/13 08:52:55;;;;;;;5.07;4.57;;;25.70;92.00;;;;;;4964890;29;20019;-53
2022/12/13 08:55:22;;;;;;;8.73;4.88;;;25.60;92.00;;;;;;4964384;29;20035;-56
2022/12/13 08:57:49;;;;;;;7.72;4.43;;;25.70;92.10;;;;;;4964686;28;20077;-57
2022/12/13 09:00:19;;;;;;;6.63;4.70;;;25.60;92.20;;;;;;4964421;29;20031;-56
2022/12/13 09:02:46;;;;;;;9.00;5.13;;;25.70;92.20;;;;;;4964393;28;20054;-54
2022/12/13 09:05:13;;;;;;;8.40;5.20;;;25.60;92.10;;;;;;4964378;28;20146;-54
2022/12/13 09:07:40;;;;;;;6.07;4.82;;;25.60;92.10;;;;;;4964517;28;20023;-54
2022/12/13 09:10:11;;;;;;;7.30;4.85;;;25.60;92.10;;;;;;4963967;28;20038;-54
2022/12/13 09:12:41;;;;;;;5.78;5.20;;;25.60;92.10;;;;;;4964631;28;20035;-55
2022/12/13 09:15:08;;;;;;;7.00;5.18;;;25.60;92.00;;;;;;4963396;29;20319;-54
2022/12/13 09:17:35;;;;;;;7.07;4.80;;;25.70;92.10;;;;;;4963799;29;20034;-54
2022/12/13 09:20:01;;;;;;;5.53;4.97;;;25.70;92.00;;;;;;4966979;28;20057;-54
2022/12/13 09:22:28;;;;;;;6.45;5.15;;;25.70;92.00;;;;;;4972343;28;20027;-54
2022/12/13 09:24:55;;;;;;;7.65;5.82;;;25.70;92.00;;;;;;4974118;28;20047;-54
2022/12/13 09:27:21;;;;;;;6.95;5.10;;;25.70;92.00;;;;;;4975503;28;20029;-57
2022/12/13 09:29:48;;;;;;;9.38;4.88;;;25.70;92.00;;;;;;4963785;29;20098;-54
2022/12/13 09:32:14;;;;;;;7.38;5.28;;;25.70;92.00;;;;;;4963846;28;20027;-54
2022/12/13 09:34:41;;;;;;;6.50;5.80;;;25.70;92.00;;;;;;4969443;28;20019;-55
2022/12/13 09:37:07;;;;;;;8.90;5.57;;;25.70;92.00;;;;;;4969647;28;20027;-53
2022/12/13 09:39:34;;;;;;;7.65;5.55;;;25.70;92.00;;;;;;4963785;28;20043;-54
2022/12/13 09:42:01;;;;;;;6.85;5.80;;;25.70;92.10;;;;;;4963760;29;20022;-55
2022/12/13 09:44:42;;;;;;;8.05;6.28;;;25.70;92.10;;;;;;4963712;29;20311;-54
2022/12/13 09:47:15;;;;;;;7.18;5.80;;;25.70;92.10;;;;;;4963488;29;20043;-53
2022/12/13 09:49:45;;;;;;;10.02;6.28;;;25.70;92.10;;;;;;4969800;28;20038;-55
2022/12/13 09:52:17;;;;;;;6.53;5.82;;;25.70;92.20;;;;;;4968306;28;20035;-54
2022/12/13 09:54:44;;;;;;;8.95;6.55;;;25.70;92.30;;;;;;4963743;28;20023;-56
2022/12/13 09:57:19;;;;;;;8.25;6.43;;;25.70;92.30;;;;;;4963836;28;20034;-57
2022/12/13 09:59:47;;;;;;;6.70;6.10;;;25.70;92.30;;;;;;4963486;28;20053;-56
2022/12/13 10:02:29;;;;;;;8.07;6.40;;;25.70;92.40;;;;;;4971582;28;20282;-54
2022/12/13 10:05:30;;;;;;;6.93;6.22;;;25.70;92.40;;;;;;4971758;28;20023;-55
2022/12/13 10:08:11;;;;;;;6.53;5.80;;;25.70;92.50;;;;;;4962056;28;20035;-49
2022/12/13 10:10:39;;;;;;;7.88;6.20;;;25.70;92.50;;;;;;4963363;28;20098;-52
2022/12/13 10:13:16;;;;;;;7.05;6.25;;;25.70;92.50;;;;;;4963537;29;20125;-55
2022/12/13 10:15:49;;;;;;;7.80;6.50;;;25.70;92.60;;;;;;4963183;29;20042;-54
2022/12/13 10:18:28;;;;;;;6.95;6.20;;;25.70;92.60;;;;;;4963481;28;20036;-53
2022/12/13 10:20:56;;;;;;;8.35;6.90;;;25.70;92.60;;;;;;4971531;28;20039;-55
2022/12/13 10:23:22;;;;;;;7.03;6.43;;;25.70;92.70;;;;;;4982790;28;20211;-56
2022/12/13 10:25:54;;;;;;;11.30;6.22;;;25.70;92.80;;;;;;4982372;28;20019;-49
2022/12/13 10:28:30;;;;;;;7.75;6.32;;;25.70;92.80;;;;;;4982266;28;20026;-53
2022/12/13 10:30:57;;;;;;;8.07;6.85;;;25.70;93.00;;;;;;4976031;28;20038;-53
2022/12/13 10:33:53;;;;;;;9.93;7.40;;;25.70;93.10;;;;;;4972011;28;20311;-57
2022/12/13 10:36:33;;;;;;;9.52;7.20;;;25.70;93.20;;;;;;4977423;28;20080;-53
2022/12/13 10:39:00;;;;;;;7.75;6.95;;;25.70;93.30;;;;;;4982341;28;20339;-52
2022/12/13 10:41:37;;;;;;;8.35;7.10;;;25.70;93.30;;;;;;4982200;28;20090;-56
2022/12/13 10:44:23;;;;;;;7.40;6.65;;;25.70;93.30;;;;;;4982110;28;20323;-54
2022/12/13 10:46:58;;;;;;;8.90;7.35;;;25.70;93.40;;;;;;4981921;28;20085;-57
2022/12/13 10:49:37;;;;;;;8.15;6.72;;;25.70;93.40;;;;;;4974742;28;20038;-52
2022/12/13 10:52:04;;;;;;;8.23;6.93;;;25.70;93.50;;;;;;4972167;28;20089;-52
2022/12/13 10:54:33;;;;;;;8.35;7.22;;;25.70;93.50;;;;;;4981924;28;20019;-53
2022/12/13 10:57:00;;;;;;;8.30;7.03;;;25.70;93.50;;;;;;4982007;28;20313;-52
2022/12/13 10:59:38;;;;;;;10.32;7.32;;;25.70;93.60;;;;;;4981957;28;20133;-52
2022/12/13 11:02:40;;;;;;;7.82;7.03;;;25.70;93.60;;;;;;4981915;28;20324;-53
2022/12/13 11:05:26;;;;;;;8.67;7.50;;;25.70;93.60;;;;;;4922937;29;20052;-53
2022/12/13 11:07:56;;;;;;;13.75;7.55;;;25.70;93.60;;;;;;4978393;28;20046;-52
2022/12/13 11:10:26;;;;;;;11.15;7.45;;;25.70;93.70;;;;;;4981668;28;20097;-53
2022/12/13 11:13:24;;;;;;;9.30;7.43;;;25.70;93.70;;;;;;4981997;28;20038;-54
2022/12/13 11:15:55;;;;;;;8.63;7.30;;;25.70;93.80;;;;;;4982038;28;20089;-53
2022/12/13 11:18:24;;;;;;;8.47;6.37;;;25.70;93.80;;;;;;4980768;28;20031;-55
2022/12/13 11:20:59;;;;;;;9.30;7.03;;;25.70;93.90;;;;;;4981170;28;20510;-56
2022/12/13 11:23:32;;;;;;;9.65;7.18;;;25.70;94.10;;;;;;4973737;28;20027;-55
2022/12/13 11:26:24;;;;;;;8.15;7.28;;;25.70;93.80;;;;;;4969501;28;20377;-55
2022/12/13 11:29:17;;;;;;;8.65;7.10;;;25.70;93.90;;;;;;4974812;28;20035;-57
2022/12/13 11:32:14;;;;;;;8.38;6.75;;;25.70;93.80;;;;;;4981551;28;20386;-56
2022/12/13 11:34:48;;;;;;;8.95;6.50;;;25.70;93.90;;;;;;4981549;28;20055;-55
2022/12/13 11:37:29;;;;;;;8.82;6.75;;;25.70;93.80;;;;;;4981699;28;20029;-56
2022/12/13 11:40:12;;;;;;;9.43;6.50;;;25.70;93.80;;;;;;4983333;28;20114;-54
2022/12/13 11:42:57;;;;;;;8.27;6.53;;;25.70;93.80;;;;;;4983680;28;20099;-52
2022/12/13 11:45:36;;;;;;;9.90;6.80;;;25.70;93.80;;;;;;4984620;28;20047;-54
2022/12/13 11:48:13;;;;;;;10.50;6.95;;;25.70;93.80;;;;;;4975679;28;20045;-52
2022/12/13 11:50:52;;;;;;;7.00;6.28;;;25.70;93.80;;;;;;4975095;28;20266;-52
2022/12/13 11:53:28;;;;;;;9.00;6.80;;;25.70;93.70;;;;;;4984877;28;20061;-52
2022/12/13 11:56:05;;;;;;;10.35;6.93;;;25.70;93.80;;;;;;4984626;28;20035;-55
2022/12/13 11:58:56;;;;;;;9.73;6.85;;;25.70;93.70;;;;;;4984822;28;20042;-52
2022/12/13 12:01:46;;;;;;;8.13;7.00;;;25.70;93.70;;;;;;4984486;28;20039;-54
2022/12/13 12:04:49;;;;;;;6.85;6.25;;;25.70;93.60;;;;;;4956411;28;20039;-53
2022/12/13 12:07:31;;;;;;;9.27;7.10;;;25.70;93.60;;;;;;4981471;28;20039;-55
2022/12/13 12:10:19;;;;;;;7.47;6.63;;;25.80;93.80;;;;;;4977807;28;20046;-53
2022/12/13 12:12:51;;;;;;;11.13;7.22;;;25.80;93.60;;;;;;4966564;28;20303;-62
2022/12/13 12:15:36;;;;;;;9.13;7.00;;;25.70;93.60;;;;;;4986668;28;20034;-62
2022/12/13 12:18:04;;;;;;;8.80;7.88;;;25.80;93.60;;;;;;4975955;28;20027;-52
2022/12/13 12:21:07;;;;;;;8.10;7.30;;;25.80;93.60;;;;;;4984350;28;20035;-50
2022/12/13 12:23:55;;;;;;;8.57;6.97;;;25.80;93.60;;;;;;4984195;28;20335;-51
2022/12/13 12:26:34;;;;;;;8.60;7.40;;;25.80;93.60;;;;;;4979978;28;20023;-56
2022/12/13 12:29:17;;;;;;;9.73;7.55;;;25.80;93.70;;;;;;4973221;28;20036;-56
2022/12/13 12:32:05;;;;;;;8.32;7.55;;;25.80;93.70;;;;;;4964760;28;20023;-56
2022/12/13 12:34:57;;;;;;;8.30;7.50;;;25.80;93.70;;;;;;4979925;28;20220;-57
2022/12/13 12:37:37;;;;;;;11.98;7.80;;;25.80;93.70;;;;;;4969428;28;20015;-54
2022/12/13 12:40:44;;;;;;;10.27;7.57;;;25.80;93.70;;;;;;4979899;28;20043;-57
2022/12/13 12:43:33;;;;;;;8.35;7.53;;;25.80;93.70;;;;;;4975643;28;20054;-53
2022/12/13 12:46:02;;;;;;;8.60;7.43;;;25.90;93.80;;;;;;4964343;29;20247;-51
2022/12/13 12:48:56;;;;;;;9.45;8.10;;;25.90;93.80;;;;;;4964917;29;20405;-51
2022/12/13 12:51:32;;;;;;;8.55;7.35;;;25.90;93.80;;;;;;4964076;28;20446;-54
2022/12/13 12:54:41;;;;;;;8.30;7.47;;;25.90;93.80;;;;;;4975877;28;20086;-55
2022/12/13 12:57:25;;;;;;;9.15;7.15;;;25.90;93.90;;;;;;4964525;28;20043;-55
2022/12/13 13:00:02;;;;;;;8.68;7.13;;;25.90;93.90;;;;;;4974930;28;20041;-56
2022/12/13 13:02:55;;;;;;;8.82;7.43;;;25.90;93.90;;;;;;4964734;29;20069;-59
2022/12/13 13:05:42;;;;;;;9.57;7.20;;;25.90;93.90;;;;;;4964376;29;20257;-55
2022/12/13 13:08:21;;;;;;;8.88;7.05;;;25.90;93.90;;;;;;4964091;29;20035;-55
2022/12/13 13:10:49;;;;;;;7.97;6.60;;;25.90;93.90;;;;;;4964620;29;20334;-55
2022/12/13 13:13:35;;;;;;;7.72;6.97;;;25.90;94.00;;;;;;4964390;28;20019;-53
2022/12/13 13:16:04;;;;;;;7.72;6.90;;;25.90;94.00;;;;;;4963327;29;20331;-54